sensor_id;sensor_type;location;lat;lon;timestamp;P1;durP1;ratioP1;P2;durP2;ratioP2
27225;SDS011;14732;51.074;3.788;2023-08-06T00:00:38;14.30;;;4.88;;
27225;SDS011;14732;51.074;3.788;2023-08-06T00:03:03;10.23;;;4.70;;
27225;SDS011;14732;51.074;3.788;2023-08-06T00:05:29;9.93;;;5.10;;
27225;SDS011;14732;51.074;3.788;2023-08-06T00:07:55;16.77;;;5.38;;
27225;SDS011;14732;51.074;3.788;2023-08-06T00:10:21;15.05;;;4.88;;
27225;SDS011;14732;51.074;3.788;2023-08-06T00:12:47;10.77;;;5.28;;
27225;SDS011;14732;51.074;3.788;2023-08-06T00:15:13;13.60;;;5.30;;
27225;SDS011;14732;51.074;3.788;2023-08-06T00:17:39;13.05;;;5.50;;
27225;SDS011;14732;51.074;3.788;2023-08-06T00:20:05;12.15;;;5.70;;
27225;SDS011;14732;51.074;3.788;2023-08-06T00:22:35;10.73;;;5.38;;
27225;SDS011;14732;51.074;3.788;2023-08-06T00:27:27;11.80;;;5.60;;
27225;SDS011;14732;51.074;3.788;2023-08-06T00:29:52;12.05;;;6.25;;
27225;SDS011;14732;51.074;3.788;2023-08-06T00:32:18;16.90;;;6.03;;
27225;SDS011;14732;51.074;3.788;2023-08-06T00:34:44;17.90;;;6.88;;
27225;SDS011;14732;51.074;3.788;2023-08-06T00:37:10;12.85;;;5.70;;
27225;SDS011;14732;51.074;3.788;2023-08-06T00:39:36;14.85;;;6.40;;
27225;SDS011;14732;51.074;3.788;2023-08-06T00:42:03;14.43;;;6.85;;
27225;SDS011;14732;51.074;3.788;2023-08-06T00:44:29;16.00;;;8.05;;
27225;SDS011;14732;51.074;3.788;2023-08-06T00:46:55;16.70;;;7.72;;
27225;SDS011;14732;51.074;3.788;2023-08-06T00:49:21;14.52;;;6.65;;
27225;SDS011;14732;51.074;3.788;2023-08-06T00:51:48;16.73;;;7.18;;
27225;SDS011;14732;51.074;3.788;2023-08-06T00:54:15;15.68;;;7.13;;
27225;SDS011;14732;51.074;3.788;2023-08-06T00:56:41;22.23;;;7.95;;
27225;SDS011;14732;51.074;3.788;2023-08-06T00:59:07;16.92;;;7.43;;
27225;SDS011;14732;51.074;3.788;2023-08-06T01:01:36;15.83;;;7.60;;
27225;SDS011;14732;51.074;3.788;2023-08-06T01:04:03;15.75;;;7.03;;
27225;SDS011;14732;51.074;3.788;2023-08-06T01:06:35;13.57;;;7.68;;
27225;SDS011;14732;51.074;3.788;2023-08-06T01:17:06;13.95;;;8.15;;
27225;SDS011;14732;51.074;3.788;2023-08-06T01:19:33;17.88;;;8.50;;
27225;SDS011;14732;51.074;3.788;2023-08-06T01:21:59;15.95;;;8.15;;
27225;SDS011;14732;51.074;3.788;2023-08-06T01:24:27;14.80;;;8.27;;
27225;SDS011;14732;51.074;3.788;2023-08-06T01:27:04;19.52;;;8.45;;
27225;SDS011;14732;51.074;3.788;2023-08-06T01:29:56;15.48;;;8.07;;
27225;SDS011;14732;51.074;3.788;2023-08-06T01:32:35;19.63;;;9.45;;
27225;SDS011;14732;51.074;3.788;2023-08-06T01:35:05;21.00;;;9.95;;
27225;SDS011;14732;51.074;3.788;2023-08-06T01:37:34;23.00;;;10.73;;
27225;SDS011;14732;51.074;3.788;2023-08-06T01:40:05;23.80;;;12.10;;
27225;SDS011;14732;51.074;3.788;2023-08-06T01:42:35;20.20;;;12.73;;
27225;SDS011;14732;51.074;3.788;2023-08-06T01:45:01;23.58;;;13.82;;
27225;SDS011;14732;51.074;3.788;2023-08-06T01:47:28;20.27;;;11.55;;
27225;SDS011;14732;51.074;3.788;2023-08-06T01:49:53;18.23;;;9.90;;
27225;SDS011;14732;51.074;3.788;2023-08-06T01:52:19;17.63;;;9.25;;
27225;SDS011;14732;51.074;3.788;2023-08-06T01:54:44;13.18;;;7.90;;
27225;SDS011;14732;51.074;3.788;2023-08-06T01:57:10;12.57;;;7.55;;
27225;SDS011;14732;51.074;3.788;2023-08-06T01:59:36;9.93;;;5.43;;
27225;SDS011;14732;51.074;3.788;2023-08-06T02:02:02;5.30;;;4.25;;
27225;SDS011;14732;51.074;3.788;2023-08-06T02:04:31;4.28;;;3.40;;
27225;SDS011;14732;51.074;3.788;2023-08-06T02:07:02;5.38;;;3.60;;
27225;SDS011;14732;51.074;3.788;2023-08-06T02:09:29;7.20;;;3.40;;
27225;SDS011;14732;51.074;3.788;2023-08-06T02:11:56;4.20;;;3.80;;
27225;SDS011;14732;51.074;3.788;2023-08-06T02:14:21;7.15;;;3.80;;
27225;SDS011;14732;51.074;3.788;2023-08-06T02:16:47;5.20;;;3.42;;
27225;SDS011;14732;51.074;3.788;2023-08-06T02:19:13;5.38;;;2.60;;
27225;SDS011;14732;51.074;3.788;2023-08-06T02:21:39;5.88;;;2.28;;
27225;SDS011;14732;51.074;3.788;2023-08-06T02:24:06;3.38;;;1.63;;
27225;SDS011;14732;51.074;3.788;2023-08-06T02:26:32;5.10;;;1.48;;
27225;SDS011;14732;51.074;3.788;2023-08-06T02:28:57;2.55;;;1.10;;
27225;SDS011;14732;51.074;3.788;2023-08-06T02:31:24;4.25;;;1.08;;
27225;SDS011;14732;51.074;3.788;2023-08-06T02:33:51;6.05;;;1.10;;
27225;SDS011;14732;51.074;3.788;2023-08-06T02:36:18;3.83;;;1.00;;
27225;SDS011;14732;51.074;3.788;2023-08-06T02:38:45;2.92;;;0.90;;
27225;SDS011;14732;51.074;3.788;2023-08-06T02:41:12;5.95;;;1.48;;
27225;SDS011;14732;51.074;3.788;2023-08-06T02:43:39;4.18;;;1.55;;
27225;SDS011;14732;51.074;3.788;2023-08-06T02:46:04;8.45;;;1.90;;
27225;SDS011;14732;51.074;3.788;2023-08-06T02:48:35;8.18;;;2.45;;
27225;SDS011;14732;51.074;3.788;2023-08-06T02:51:02;7.75;;;2.33;;
27225;SDS011;14732;51.074;3.788;2023-08-06T02:53:30;4.90;;;2.30;;
27225;SDS011;14732;51.074;3.788;2023-08-06T02:55:56;11.13;;;2.38;;
27225;SDS011;14732;51.074;3.788;2023-08-06T02:58:23;8.57;;;2.50;;
27225;SDS011;14732;51.074;3.788;2023-08-06T03:01:02;6.55;;;2.30;;
27225;SDS011;14732;51.074;3.788;2023-08-06T03:03:34;12.52;;;2.50;;
27225;SDS011;14732;51.074;3.788;2023-08-06T03:06:00;7.80;;;2.45;;
27225;SDS011;14732;51.074;3.788;2023-08-06T03:08:26;10.57;;;2.40;;
27225;SDS011;14732;51.074;3.788;2023-08-06T03:10:52;6.68;;;2.53;;
27225;SDS011;14732;51.074;3.788;2023-08-06T03:13:18;8.52;;;2.70;;
27225;SDS011;14732;51.074;3.788;2023-08-06T03:15:52;7.47;;;2.53;;
27225;SDS011;14732;51.074;3.788;2023-08-06T03:18:21;8.10;;;2.58;;
27225;SDS011;14732;51.074;3.788;2023-08-06T03:20:47;12.57;;;2.90;;
27225;SDS011;14732;51.074;3.788;2023-08-06T03:23:13;13.00;;;3.22;;
27225;SDS011;14732;51.074;3.788;2023-08-06T03:25:39;8.40;;;3.40;;
27225;SDS011;14732;51.074;3.788;2023-08-06T03:28:05;6.57;;;3.67;;
27225;SDS011;14732;51.074;3.788;2023-08-06T03:30:31;10.25;;;3.90;;
27225;SDS011;14732;51.074;3.788;2023-08-06T03:32:57;8.98;;;3.40;;
27225;SDS011;14732;51.074;3.788;2023-08-06T03:35:23;10.00;;;3.65;;
27225;SDS011;14732;51.074;3.788;2023-08-06T03:37:49;6.32;;;3.40;;
27225;SDS011;14732;51.074;3.788;2023-08-06T03:40:15;7.97;;;3.60;;
27225;SDS011;14732;51.074;3.788;2023-08-06T03:42:41;12.50;;;3.70;;
27225;SDS011;14732;51.074;3.788;2023-08-06T03:45:07;8.40;;;3.95;;
27225;SDS011;14732;51.074;3.788;2023-08-06T03:47:34;12.10;;;3.78;;
27225;SDS011;14732;51.074;3.788;2023-08-06T03:50:00;8.98;;;4.75;;
27225;SDS011;14732;51.074;3.788;2023-08-06T03:52:26;11.27;;;5.18;;
27225;SDS011;14732;51.074;3.788;2023-08-06T03:54:51;15.45;;;6.03;;
27225;SDS011;14732;51.074;3.788;2023-08-06T03:57:18;15.73;;;6.22;;
27225;SDS011;14732;51.074;3.788;2023-08-06T03:59:43;13.88;;;5.82;;
27225;SDS011;14732;51.074;3.788;2023-08-06T04:02:09;15.45;;;5.70;;
27225;SDS011;14732;51.074;3.788;2023-08-06T04:04:35;15.50;;;5.63;;
27225;SDS011;14732;51.074;3.788;2023-08-06T04:07:01;11.52;;;4.30;;
27225;SDS011;14732;51.074;3.788;2023-08-06T04:09:29;13.50;;;4.10;;
27225;SDS011;14732;51.074;3.788;2023-08-06T04:12:00;15.23;;;3.75;;
27225;SDS011;14732;51.074;3.788;2023-08-06T04:14:27;12.85;;;3.63;;
27225;SDS011;14732;51.074;3.788;2023-08-06T04:16:54;10.30;;;3.80;;
27225;SDS011;14732;51.074;3.788;2023-08-06T04:19:20;17.35;;;3.95;;
27225;SDS011;14732;51.074;3.788;2023-08-06T04:21:47;11.90;;;3.20;;
27225;SDS011;14732;51.074;3.788;2023-08-06T04:24:15;16.02;;;3.70;;
27225;SDS011;14732;51.074;3.788;2023-08-06T04:26:43;14.02;;;3.10;;
27225;SDS011;14732;51.074;3.788;2023-08-06T04:29:10;12.93;;;2.55;;
27225;SDS011;14732;51.074;3.788;2023-08-06T04:31:38;8.80;;;2.30;;
27225;SDS011;14732;51.074;3.788;2023-08-06T04:34:03;9.65;;;2.40;;
27225;SDS011;14732;51.074;3.788;2023-08-06T04:36:30;8.10;;;2.30;;
27225;SDS011;14732;51.074;3.788;2023-08-06T04:38:57;5.85;;;2.35;;
27225;SDS011;14732;51.074;3.788;2023-08-06T04:41:24;9.25;;;2.42;;
27225;SDS011;14732;51.074;3.788;2023-08-06T04:43:50;8.88;;;2.58;;
27225;SDS011;14732;51.074;3.788;2023-08-06T04:46:16;7.90;;;2.40;;
27225;SDS011;14732;51.074;3.788;2023-08-06T04:48:42;6.88;;;2.33;;
27225;SDS011;14732;51.074;3.788;2023-08-06T04:51:08;9.35;;;2.67;;
27225;SDS011;14732;51.074;3.788;2023-08-06T04:53:36;11.93;;;2.78;;
27225;SDS011;14732;51.074;3.788;2023-08-06T04:56:03;10.20;;;2.45;;
27225;SDS011;14732;51.074;3.788;2023-08-06T04:58:29;7.80;;;2.22;;
27225;SDS011;14732;51.074;3.788;2023-08-06T05:00:57;11.00;;;2.50;;
27225;SDS011;14732;51.074;3.788;2023-08-06T05:03:24;10.15;;;2.72;;
27225;SDS011;14732;51.074;3.788;2023-08-06T05:05:53;13.63;;;2.40;;
27225;SDS011;14732;51.074;3.788;2023-08-06T05:08:19;10.52;;;2.85;;
27225;SDS011;14732;51.074;3.788;2023-08-06T05:10:45;10.35;;;2.60;;
27225;SDS011;14732;51.074;3.788;2023-08-06T05:13:13;11.20;;;3.08;;
27225;SDS011;14732;51.074;3.788;2023-08-06T05:15:40;9.45;;;2.80;;
27225;SDS011;14732;51.074;3.788;2023-08-06T05:18:14;11.45;;;3.00;;
27225;SDS011;14732;51.074;3.788;2023-08-06T05:20:40;8.90;;;2.80;;
27225;SDS011;14732;51.074;3.788;2023-08-06T05:23:07;10.70;;;3.00;;
27225;SDS011;14732;51.074;3.788;2023-08-06T05:25:36;8.35;;;2.97;;
27225;SDS011;14732;51.074;3.788;2023-08-06T05:28:04;10.52;;;2.90;;
27225;SDS011;14732;51.074;3.788;2023-08-06T05:30:30;8.45;;;2.95;;
27225;SDS011;14732;51.074;3.788;2023-08-06T05:32:56;5.20;;;2.58;;
27225;SDS011;14732;51.074;3.788;2023-08-06T05:35:22;10.90;;;3.10;;
27225;SDS011;14732;51.074;3.788;2023-08-06T05:37:50;6.95;;;2.63;;
27225;SDS011;14732;51.074;3.788;2023-08-06T05:40:15;9.43;;;3.20;;
27225;SDS011;14732;51.074;3.788;2023-08-06T05:42:44;9.68;;;2.70;;
27225;SDS011;14732;51.074;3.788;2023-08-06T05:45:10;8.75;;;2.55;;
27225;SDS011;14732;51.074;3.788;2023-08-06T05:47:37;9.98;;;2.70;;
27225;SDS011;14732;51.074;3.788;2023-08-06T05:50:03;10.25;;;2.75;;
27225;SDS011;14732;51.074;3.788;2023-08-06T05:52:32;10.63;;;2.38;;
27225;SDS011;14732;51.074;3.788;2023-08-06T05:55:01;8.07;;;2.28;;
27225;SDS011;14732;51.074;3.788;2023-08-06T05:57:27;5.80;;;1.40;;
27225;SDS011;14732;51.074;3.788;2023-08-06T05:59:53;9.63;;;1.40;;
27225;SDS011;14732;51.074;3.788;2023-08-06T06:02:20;6.13;;;1.25;;
27225;SDS011;14732;51.074;3.788;2023-08-06T06:04:45;8.43;;;1.30;;
27225;SDS011;14732;51.074;3.788;2023-08-06T06:07:12;9.30;;;1.20;;
27225;SDS011;14732;51.074;3.788;2023-08-06T06:09:42;5.43;;;1.10;;
27225;SDS011;14732;51.074;3.788;2023-08-06T06:12:09;7.05;;;1.02;;
27225;SDS011;14732;51.074;3.788;2023-08-06T06:14:44;7.13;;;1.17;;
27225;SDS011;14732;51.074;3.788;2023-08-06T06:17:11;7.47;;;0.95;;
27225;SDS011;14732;51.074;3.788;2023-08-06T06:19:38;6.82;;;0.93;;
27225;SDS011;14732;51.074;3.788;2023-08-06T06:22:04;8.32;;;1.02;;
27225;SDS011;14732;51.074;3.788;2023-08-06T06:24:30;12.02;;;1.52;;
27225;SDS011;14732;51.074;3.788;2023-08-06T06:26:56;6.93;;;0.80;;
27225;SDS011;14732;51.074;3.788;2023-08-06T06:29:22;7.43;;;1.00;;
27225;SDS011;14732;51.074;3.788;2023-08-06T06:31:48;8.23;;;1.20;;
27225;SDS011;14732;51.074;3.788;2023-08-06T06:34:13;7.95;;;0.95;;
27225;SDS011;14732;51.074;3.788;2023-08-06T06:36:40;9.07;;;1.10;;
27225;SDS011;14732;51.074;3.788;2023-08-06T06:39:08;8.27;;;1.00;;
27225;SDS011;14732;51.074;3.788;2023-08-06T06:41:37;5.60;;;1.20;;
27225;SDS011;14732;51.074;3.788;2023-08-06T06:44:05;4.00;;;1.08;;
27225;SDS011;14732;51.074;3.788;2023-08-06T06:46:32;6.82;;;1.05;;
27225;SDS011;14732;51.074;3.788;2023-08-06T06:48:59;8.85;;;1.00;;
27225;SDS011;14732;51.074;3.788;2023-08-06T06:51:24;8.60;;;1.35;;
27225;SDS011;14732;51.074;3.788;2023-08-06T06:53:50;8.88;;;1.23;;
27225;SDS011;14732;51.074;3.788;2023-08-06T06:56:16;9.13;;;1.25;;
27225;SDS011;14732;51.074;3.788;2023-08-06T06:58:42;9.05;;;1.50;;
27225;SDS011;14732;51.074;3.788;2023-08-06T07:01:08;11.13;;;1.45;;
27225;SDS011;14732;51.074;3.788;2023-08-06T07:03:35;10.20;;;1.40;;
27225;SDS011;14732;51.074;3.788;2023-08-06T07:06:01;8.27;;;1.45;;
27225;SDS011;14732;51.074;3.788;2023-08-06T07:08:28;9.88;;;1.77;;
27225;SDS011;14732;51.074;3.788;2023-08-06T07:11:01;9.40;;;1.58;;
27225;SDS011;14732;51.074;3.788;2023-08-06T07:13:27;10.80;;;1.50;;
27225;SDS011;14732;51.074;3.788;2023-08-06T07:15:54;9.80;;;1.48;;
27225;SDS011;14732;51.074;3.788;2023-08-06T07:18:20;5.75;;;1.10;;
27225;SDS011;14732;51.074;3.788;2023-08-06T07:20:53;7.78;;;1.38;;
27225;SDS011;14732;51.074;3.788;2023-08-06T07:23:20;10.73;;;1.20;;
27225;SDS011;14732;51.074;3.788;2023-08-06T07:25:50;14.05;;;1.70;;
27225;SDS011;14732;51.074;3.788;2023-08-06T07:28:16;6.72;;;1.38;;
27225;SDS011;14732;51.074;3.788;2023-08-06T07:30:42;5.18;;;1.02;;
27225;SDS011;14732;51.074;3.788;2023-08-06T07:33:09;6.43;;;1.40;;
27225;SDS011;14732;51.074;3.788;2023-08-06T07:35:34;8.60;;;1.35;;
27225;SDS011;14732;51.074;3.788;2023-08-06T07:38:01;6.60;;;1.20;;
27225;SDS011;14732;51.074;3.788;2023-08-06T07:40:28;8.15;;;1.30;;
27225;SDS011;14732;51.074;3.788;2023-08-06T07:42:55;7.07;;;1.20;;
27225;SDS011;14732;51.074;3.788;2023-08-06T07:45:21;6.43;;;1.23;;
27225;SDS011;14732;51.074;3.788;2023-08-06T07:47:47;7.78;;;1.20;;
27225;SDS011;14732;51.074;3.788;2023-08-06T07:50:13;8.80;;;1.63;;
27225;SDS011;14732;51.074;3.788;2023-08-06T07:52:39;6.68;;;0.98;;
27225;SDS011;14732;51.074;3.788;2023-08-06T07:55:05;8.45;;;1.70;;
27225;SDS011;14732;51.074;3.788;2023-08-06T07:57:41;8.15;;;1.50;;
27225;SDS011;14732;51.074;3.788;2023-08-06T08:00:10;5.75;;;1.00;;
27225;SDS011;14732;51.074;3.788;2023-08-06T08:02:36;9.23;;;1.13;;
27225;SDS011;14732;51.074;3.788;2023-08-06T08:05:05;9.73;;;1.13;;
27225;SDS011;14732;51.074;3.788;2023-08-06T08:07:34;11.98;;;1.50;;
27225;SDS011;14732;51.074;3.788;2023-08-06T08:10:03;8.23;;;1.40;;
27225;SDS011;14732;51.074;3.788;2023-08-06T08:12:30;11.38;;;1.45;;
27225;SDS011;14732;51.074;3.788;2023-08-06T08:14:55;8.10;;;1.30;;
27225;SDS011;14732;51.074;3.788;2023-08-06T08:17:21;12.43;;;1.38;;
27225;SDS011;14732;51.074;3.788;2023-08-06T08:19:47;11.70;;;2.63;;
27225;SDS011;14732;51.074;3.788;2023-08-06T08:22:12;15.00;;;1.42;;
27225;SDS011;14732;51.074;3.788;2023-08-06T08:24:38;8.02;;;1.30;;
27225;SDS011;14732;51.074;3.788;2023-08-06T08:27:04;13.82;;;1.60;;
27225;SDS011;14732;51.074;3.788;2023-08-06T08:29:30;7.07;;;1.23;;
27225;SDS011;14732;51.074;3.788;2023-08-06T08:31:56;8.43;;;1.67;;
27225;SDS011;14732;51.074;3.788;2023-08-06T08:34:22;11.93;;;1.23;;
27225;SDS011;14732;51.074;3.788;2023-08-06T08:36:47;6.07;;;1.38;;
27225;SDS011;14732;51.074;3.788;2023-08-06T08:39:14;13.52;;;1.58;;
27225;SDS011;14732;51.074;3.788;2023-08-06T08:41:40;9.70;;;1.33;;
27225;SDS011;14732;51.074;3.788;2023-08-06T08:44:08;9.50;;;1.30;;
27225;SDS011;14732;51.074;3.788;2023-08-06T08:46:40;11.95;;;1.58;;
27225;SDS011;14732;51.074;3.788;2023-08-06T08:49:07;13.50;;;1.63;;
27225;SDS011;14732;51.074;3.788;2023-08-06T08:51:33;7.53;;;1.58;;
27225;SDS011;14732;51.074;3.788;2023-08-06T08:54:03;8.05;;;1.52;;
27225;SDS011;14732;51.074;3.788;2023-08-06T08:56:30;5.40;;;1.50;;
27225;SDS011;14732;51.074;3.788;2023-08-06T08:58:57;10.25;;;1.60;;
27225;SDS011;14732;51.074;3.788;2023-08-06T09:01:23;10.48;;;1.65;;
27225;SDS011;14732;51.074;3.788;2023-08-06T09:03:49;12.77;;;1.45;;
27225;SDS011;14732;51.074;3.788;2023-08-06T09:06:17;5.97;;;1.00;;
27225;SDS011;14732;51.074;3.788;2023-08-06T09:08:54;9.95;;;1.30;;
27225;SDS011;14732;51.074;3.788;2023-08-06T09:11:27;7.68;;;1.33;;
27225;SDS011;14732;51.074;3.788;2023-08-06T09:13:56;9.70;;;1.47;;
27225;SDS011;14732;51.074;3.788;2023-08-06T09:16:24;10.20;;;1.40;;
27225;SDS011;14732;51.074;3.788;2023-08-06T09:18:50;9.32;;;1.38;;
27225;SDS011;14732;51.074;3.788;2023-08-06T09:21:16;14.15;;;1.33;;
27225;SDS011;14732;51.074;3.788;2023-08-06T09:23:47;6.03;;;1.10;;
27225;SDS011;14732;51.074;3.788;2023-08-06T09:27:14;7.32;;;1.60;;
27225;SDS011;14732;51.074;3.788;2023-08-06T09:30:19;7.38;;;1.40;;
27225;SDS011;14732;51.074;3.788;2023-08-06T09:32:57;7.63;;;1.10;;
27225;SDS011;14732;51.074;3.788;2023-08-06T09:35:31;12.18;;;1.55;;
27225;SDS011;14732;51.074;3.788;2023-08-06T09:38:11;9.68;;;1.10;;
27225;SDS011;14732;51.074;3.788;2023-08-06T09:40:40;11.90;;;1.08;;
27225;SDS011;14732;51.074;3.788;2023-08-06T09:43:09;6.03;;;1.48;;
27225;SDS011;14732;51.074;3.788;2023-08-06T09:45:39;8.95;;;1.30;;
27225;SDS011;14732;51.074;3.788;2023-08-06T09:48:05;7.95;;;1.13;;
27225;SDS011;14732;51.074;3.788;2023-08-06T09:50:34;6.90;;;1.40;;
27225;SDS011;14732;51.074;3.788;2023-08-06T09:53:10;10.48;;;1.73;;
27225;SDS011;14732;51.074;3.788;2023-08-06T09:55:49;12.30;;;1.77;;
27225;SDS011;14732;51.074;3.788;2023-08-06T09:58:23;9.02;;;1.50;;
27225;SDS011;14732;51.074;3.788;2023-08-06T10:00:50;9.55;;;1.92;;
27225;SDS011;14732;51.074;3.788;2023-08-06T10:03:19;7.03;;;1.38;;
27225;SDS011;14732;51.074;3.788;2023-08-06T10:06:07;11.80;;;1.40;;
27225;SDS011;14732;51.074;3.788;2023-08-06T10:08:40;10.63;;;1.77;;
27225;SDS011;14732;51.074;3.788;2023-08-06T10:11:14;11.20;;;1.75;;
27225;SDS011;14732;51.074;3.788;2023-08-06T10:13:54;14.32;;;1.75;;
27225;SDS011;14732;51.074;3.788;2023-08-06T10:16:36;8.90;;;1.17;;
27225;SDS011;14732;51.074;3.788;2023-08-06T10:19:03;6.72;;;1.35;;
27225;SDS011;14732;51.074;3.788;2023-08-06T10:21:31;15.07;;;1.70;;
27225;SDS011;14732;51.074;3.788;2023-08-06T10:23:57;9.18;;;1.63;;
27225;SDS011;14732;51.074;3.788;2023-08-06T10:26:29;8.02;;;1.27;;
27225;SDS011;14732;51.074;3.788;2023-08-06T10:28:55;7.82;;;1.55;;
27225;SDS011;14732;51.074;3.788;2023-08-06T10:32:22;6.63;;;1.45;;
27225;SDS011;14732;51.074;3.788;2023-08-06T10:34:20;8.15;;;1.30;;
27225;SDS011;14732;51.074;3.788;2023-08-06T10:36:59;5.63;;;1.10;;
27225;SDS011;14732;51.074;3.788;2023-08-06T10:39:47;7.82;;;1.40;;
27225;SDS011;14732;51.074;3.788;2023-08-06T10:42:19;5.30;;;1.10;;
27225;SDS011;14732;51.074;3.788;2023-08-06T10:47:41;9.85;;;1.52;;
27225;SDS011;14732;51.074;3.788;2023-08-06T10:52:38;9.85;;;1.92;;
27225;SDS011;14732;51.074;3.788;2023-08-06T10:55:04;7.47;;;1.33;;
27225;SDS011;14732;51.074;3.788;2023-08-06T10:57:31;7.20;;;1.35;;
27225;SDS011;14732;51.074;3.788;2023-08-06T10:59:57;6.40;;;1.33;;
27225;SDS011;14732;51.074;3.788;2023-08-06T11:02:23;5.95;;;1.30;;
27225;SDS011;14732;51.074;3.788;2023-08-06T11:04:50;8.38;;;1.42;;
27225;SDS011;14732;51.074;3.788;2023-08-06T11:07:16;7.45;;;1.60;;
27225;SDS011;14732;51.074;3.788;2023-08-06T11:09:50;9.73;;;1.50;;
27225;SDS011;14732;51.074;3.788;2023-08-06T11:12:19;9.43;;;1.48;;
27225;SDS011;14732;51.074;3.788;2023-08-06T11:14:51;7.40;;;1.20;;
27225;SDS011;14732;51.074;3.788;2023-08-06T11:17:19;6.93;;;1.10;;
27225;SDS011;14732;51.074;3.788;2023-08-06T11:19:46;6.60;;;1.33;;
27225;SDS011;14732;51.074;3.788;2023-08-06T11:22:14;5.68;;;1.17;;
27225;SDS011;14732;51.074;3.788;2023-08-06T11:24:42;5.22;;;1.40;;
27225;SDS011;14732;51.074;3.788;2023-08-06T11:27:13;8.32;;;1.50;;
27225;SDS011;14732;51.074;3.788;2023-08-06T11:29:42;6.40;;;1.45;;
27225;SDS011;14732;51.074;3.788;2023-08-06T11:32:22;7.35;;;1.42;;
27225;SDS011;14732;51.074;3.788;2023-08-06T11:34:52;12.00;;;1.20;;
27225;SDS011;14732;51.074;3.788;2023-08-06T11:37:49;6.97;;;1.58;;
27225;SDS011;14732;51.074;3.788;2023-08-06T11:40:48;7.97;;;1.65;;
27225;SDS011;14732;51.074;3.788;2023-08-06T11:43:37;8.18;;;1.75;;
27225;SDS011;14732;51.074;3.788;2023-08-06T11:56:18;7.82;;;1.13;;
27225;SDS011;14732;51.074;3.788;2023-08-06T11:58:50;3.58;;;1.05;;
27225;SDS011;14732;51.074;3.788;2023-08-06T12:01:16;8.32;;;1.02;;
27225;SDS011;14732;51.074;3.788;2023-08-06T12:07:36;4.70;;;1.00;;
27225;SDS011;14732;51.074;3.788;2023-08-06T12:10:09;7.57;;;1.10;;
27225;SDS011;14732;51.074;3.788;2023-08-06T12:12:55;7.05;;;0.95;;
27225;SDS011;14732;51.074;3.788;2023-08-06T12:15:46;13.27;;;1.70;;
27225;SDS011;14732;51.074;3.788;2023-08-06T12:20:48;6.78;;;1.35;;
27225;SDS011;14732;51.074;3.788;2023-08-06T12:23:14;10.38;;;1.40;;
27225;SDS011;14732;51.074;3.788;2023-08-06T12:25:40;7.88;;;1.20;;
27225;SDS011;14732;51.074;3.788;2023-08-06T12:28:07;9.48;;;1.10;;
27225;SDS011;14732;51.074;3.788;2023-08-06T12:30:34;9.18;;;1.33;;
27225;SDS011;14732;51.074;3.788;2023-08-06T12:33:00;8.60;;;1.30;;
27225;SDS011;14732;51.074;3.788;2023-08-06T12:35:28;10.10;;;1.45;;
27225;SDS011;14732;51.074;3.788;2023-08-06T12:37:56;6.82;;;1.35;;
27225;SDS011;14732;51.074;3.788;2023-08-06T12:40:46;8.93;;;1.23;;
27225;SDS011;14732;51.074;3.788;2023-08-06T12:43:26;6.20;;;1.23;;
27225;SDS011;14732;51.074;3.788;2023-08-06T12:45:55;7.18;;;1.70;;
27225;SDS011;14732;51.074;3.788;2023-08-06T12:48:22;7.10;;;1.45;;
27225;SDS011;14732;51.074;3.788;2023-08-06T12:50:50;9.20;;;1.42;;
27225;SDS011;14732;51.074;3.788;2023-08-06T12:53:17;5.03;;;1.17;;
27225;SDS011;14732;51.074;3.788;2023-08-06T12:55:54;6.43;;;1.45;;
27225;SDS011;14732;51.074;3.788;2023-08-06T12:58:23;8.32;;;1.63;;
27225;SDS011;14732;51.074;3.788;2023-08-06T13:00:50;9.43;;;1.80;;
27225;SDS011;14732;51.074;3.788;2023-08-06T13:03:26;6.70;;;1.42;;
27225;SDS011;14732;51.074;3.788;2023-08-06T13:05:53;12.30;;;1.55;;
27225;SDS011;14732;51.074;3.788;2023-08-06T13:08:20;10.55;;;1.40;;
27225;SDS011;14732;51.074;3.788;2023-08-06T13:10:49;7.57;;;1.40;;
27225;SDS011;14732;51.074;3.788;2023-08-06T13:13:17;7.38;;;1.20;;
27225;SDS011;14732;51.074;3.788;2023-08-06T13:15:43;8.52;;;1.27;;
27225;SDS011;14732;51.074;3.788;2023-08-06T13:18:10;10.25;;;1.92;;
27225;SDS011;14732;51.074;3.788;2023-08-06T13:20:38;8.43;;;1.33;;
27225;SDS011;14732;51.074;3.788;2023-08-06T13:23:07;3.67;;;1.00;;
27225;SDS011;14732;51.074;3.788;2023-08-06T13:25:34;5.05;;;1.00;;
27225;SDS011;14732;51.074;3.788;2023-08-06T13:28:02;9.70;;;1.38;;
27225;SDS011;14732;51.074;3.788;2023-08-06T13:30:29;8.48;;;1.20;;
27225;SDS011;14732;51.074;3.788;2023-08-06T13:32:56;10.40;;;1.30;;
27225;SDS011;14732;51.074;3.788;2023-08-06T13:35:23;7.90;;;1.10;;
27225;SDS011;14732;51.074;3.788;2023-08-06T13:37:51;9.40;;;1.27;;
27225;SDS011;14732;51.074;3.788;2023-08-06T13:40:17;6.53;;;1.10;;
27225;SDS011;14732;51.074;3.788;2023-08-06T13:42:45;6.63;;;1.30;;
27225;SDS011;14732;51.074;3.788;2023-08-06T13:45:14;7.38;;;1.38;;
27225;SDS011;14732;51.074;3.788;2023-08-06T13:47:42;5.28;;;1.00;;
27225;SDS011;14732;51.074;3.788;2023-08-06T13:50:09;9.15;;;1.20;;
27225;SDS011;14732;51.074;3.788;2023-08-06T13:52:35;7.07;;;2.05;;
27225;SDS011;14732;51.074;3.788;2023-08-06T13:55:01;10.63;;;1.48;;
27225;SDS011;14732;51.074;3.788;2023-08-06T13:57:28;10.70;;;1.58;;
27225;SDS011;14732;51.074;3.788;2023-08-06T13:59:55;5.57;;;1.50;;
27225;SDS011;14732;51.074;3.788;2023-08-06T14:02:21;6.35;;;1.10;;
27225;SDS011;14732;51.074;3.788;2023-08-06T14:04:48;5.05;;;1.35;;
27225;SDS011;14732;51.074;3.788;2023-08-06T14:07:14;10.30;;;1.55;;
27225;SDS011;14732;51.074;3.788;2023-08-06T14:09:40;7.28;;;1.10;;
27225;SDS011;14732;51.074;3.788;2023-08-06T14:12:07;9.30;;;1.30;;
27225;SDS011;14732;51.074;3.788;2023-08-06T14:14:33;6.38;;;1.38;;
27225;SDS011;14732;51.074;3.788;2023-08-06T14:16:59;8.60;;;1.40;;
27225;SDS011;14732;51.074;3.788;2023-08-06T14:19:25;6.43;;;1.50;;
27225;SDS011;14732;51.074;3.788;2023-08-06T14:21:52;4.38;;;1.15;;
27225;SDS011;14732;51.074;3.788;2023-08-06T14:24:18;5.38;;;1.33;;
27225;SDS011;14732;51.074;3.788;2023-08-06T14:26:44;7.85;;;1.58;;
27225;SDS011;14732;51.074;3.788;2023-08-06T14:29:09;8.77;;;1.42;;
27225;SDS011;14732;51.074;3.788;2023-08-06T14:31:35;6.05;;;1.40;;
27225;SDS011;14732;51.074;3.788;2023-08-06T14:34:01;4.10;;;1.52;;
27225;SDS011;14732;51.074;3.788;2023-08-06T14:36:27;8.68;;;1.55;;
27225;SDS011;14732;51.074;3.788;2023-08-06T14:38:55;6.78;;;1.30;;
27225;SDS011;14732;51.074;3.788;2023-08-06T14:41:22;3.58;;;1.20;;
27225;SDS011;14732;51.074;3.788;2023-08-06T14:43:49;8.23;;;1.40;;
27225;SDS011;14732;51.074;3.788;2023-08-06T14:46:21;4.65;;;1.17;;
27225;SDS011;14732;51.074;3.788;2023-08-06T14:48:47;5.45;;;1.30;;
27225;SDS011;14732;51.074;3.788;2023-08-06T14:51:12;7.97;;;1.25;;
27225;SDS011;14732;51.074;3.788;2023-08-06T14:53:39;10.65;;;1.33;;
27225;SDS011;14732;51.074;3.788;2023-08-06T14:56:05;8.32;;;1.85;;
27225;SDS011;14732;51.074;3.788;2023-08-06T14:58:31;7.47;;;1.27;;
27225;SDS011;14732;51.074;3.788;2023-08-06T15:00:57;11.70;;;1.33;;
27225;SDS011;14732;51.074;3.788;2023-08-06T15:03:22;11.68;;;1.30;;
27225;SDS011;14732;51.074;3.788;2023-08-06T15:05:48;8.85;;;1.50;;
27225;SDS011;14732;51.074;3.788;2023-08-06T15:08:14;3.75;;;1.27;;
27225;SDS011;14732;51.074;3.788;2023-08-06T15:10:40;9.52;;;1.33;;
27225;SDS011;14732;51.074;3.788;2023-08-06T15:13:06;9.55;;;1.70;;
27225;SDS011;14732;51.074;3.788;2023-08-06T15:15:32;4.53;;;1.30;;
27225;SDS011;14732;51.074;3.788;2023-08-06T15:17:59;5.90;;;1.30;;
27225;SDS011;14732;51.074;3.788;2023-08-06T15:20:26;4.75;;;1.25;;
27225;SDS011;14732;51.074;3.788;2023-08-06T15:22:52;11.15;;;1.20;;